Time;durP1;ratioP1;P1;durP2;ratioP2;P2;SDS_P1;SDS_P2;PMS_P1;PMS_P2;Temp;Humidity;BMP_temperature;BMP_pressure;BME280_temperature;BME280_humidity;BME280_pressure;Samples;Min_cycle;Max_cycle;Signal;HPM_P1;HPM_P2
2022/12/24 00:00:31;;;;;;;14.03;3.27;;;11.10;99.90;;;;;;5073167;28;20211;-77
2022/12/24 00:02:56;;;;;;;25.03;3.73;;;11.10;99.90;;;;;;5055161;28;20538;-77
2022/12/24 00:05:22;;;;;;;18.60;4.23;;;11.00;99.90;;;;;;5073030;28;20199;-77
2022/12/24 00:07:47;;;;;;;20.13;3.50;;;11.10;99.90;;;;;;5073033;28;20175;-77
2022/12/24 00:10:13;;;;;;;22.73;4.07;;;11.10;99.90;;;;;;5055439;28;20304;-77
2022/12/24 00:12:39;;;;;;;17.40;3.00;;;11.10;99.90;;;;;;5055168;28;20197;-77
2022/12/24 00:15:05;;;;;;;15.90;3.33;;;11.10;99.90;;;;;;5055112;28;20174;-76
2022/12/24 00:17:31;;;;;;;13.77;3.07;;;11.20;99.90;;;;;;5072898;28;20228;-77
2022/12/24 00:19:56;;;;;;;17.47;3.70;;;11.10;99.90;;;;;;5072486;28;20248;-77
2022/12/24 00:22:22;;;;;;;19.23;3.17;;;11.10;99.90;;;;;;5073120;28;20182;-77
2022/12/24 00:24:48;;;;;;;13.27;3.80;;;11.10;99.90;;;;;;5054949;28;20209;-77
2022/12/24 00:27:13;;;;;;;19.93;4.00;;;11.10;99.90;;;;;;5072896;28;20179;-76
2022/12/24 00:29:39;;;;;;;18.10;3.47;;;11.10;99.90;;;;;;5073055;28;20664;-76
2022/12/24 00:32:08;;;;;;;20.27;4.53;;;11.00;99.90;;;;;;5072929;28;20229;-76
2022/12/24 00:34:37;;;;;;;17.77;3.40;;;11.10;99.90;;;;;;5072919;28;20174;-76
2022/12/24 00:37:03;;;;;;;19.20;3.87;;;11.00;99.90;;;;;;5072640;28;20548;-77
2022/12/24 00:39:28;;;;;;;20.20;4.00;;;11.00;99.90;;;;;;5054885;28;20207;-77
2022/12/24 00:41:54;;;;;;;19.90;3.30;;;10.90;99.90;;;;;;5072747;28;20174;-77
2022/12/24 00:44:19;;;;;;;11.47;3.40;;;10.90;99.90;;;;;;5054738;28;20205;-77
2022/12/24 00:46:45;;;;;;;14.73;3.30;;;10.90;99.90;;;;;;5072737;28;20174;-76
2022/12/24 00:49:12;;;;;;;19.13;3.60;;;10.80;99.90;;;;;;5072596;28;20218;-76
2022/12/24 00:51:37;;;;;;;21.00;3.40;;;10.80;99.90;;;;;;5073117;28;20254;-77
2022/12/24 00:54:03;;;;;;;20.13;3.30;;;10.70;99.90;;;;;;5072704;28;20205;-76
2022/12/24 00:56:29;;;;;;;21.97;4.10;;;10.70;99.90;;;;;;5072877;28;20671;-77
2022/12/24 00:58:54;;;;;;;18.90;3.73;;;10.70;99.90;;;;;;5054641;28;20812;-76
2022/12/24 01:01:21;;;;;;;21.93;4.03;;;10.60;99.90;;;;;;5054638;28;20179;-76
2022/12/24 01:03:47;;;;;;;29.77;4.10;;;10.60;99.90;;;;;;5072729;28;20198;-76
2022/12/24 01:06:19;;;;;;;17.60;3.40;;;10.60;99.90;;;;;;5054626;28;20175;-76
2022/12/24 01:08:44;;;;;;;14.80;4.10;;;10.50;99.90;;;;;;5072790;28;20187;-76
2022/12/24 01:11:11;;;;;;;21.17;3.97;;;10.50;99.90;;;;;;5054699;28;20167;-76
2022/12/24 01:13:37;;;;;;;14.73;2.93;;;10.40;99.90;;;;;;5054594;28;20183;-76
2022/12/24 01:16:11;;;;;;;17.53;3.67;;;10.40;99.90;;;;;;5054573;28;20265;-76
2022/12/24 01:18:37;;;;;;;18.80;3.73;;;10.30;99.90;;;;;;5072743;28;20339;-77
2022/12/24 01:21:03;;;;;;;21.37;4.03;;;10.30;99.90;;;;;;5072762;28;20648;-76
2022/12/24 01:23:30;;;;;;;23.73;4.03;;;10.20;99.90;;;;;;5072306;28;20186;-76
2022/12/24 01:26:00;;;;;;;20.00;4.10;;;10.20;99.90;;;;;;5054458;28;20175;-77
2022/12/24 01:28:26;;;;;;;21.77;3.80;;;10.20;99.90;;;;;;5054196;28;20175;-77
2022/12/24 01:30:51;;;;;;;23.17;4.83;;;10.20;99.90;;;;;;5072228;28;20167;-76
2022/12/24 01:33:17;;;;;;;22.07;4.83;;;10.10;99.90;;;;;;5057070;28;20193;-76
2022/12/24 01:35:42;;;;;;;20.83;3.57;;;10.20;99.90;;;;;;5075826;28;20170;-76
2022/12/24 01:38:10;;;;;;;20.53;4.13;;;10.20;99.90;;;;;;5075726;28;20252;-78
2022/12/24 01:43:24;;;;;;;21.57;3.70;;;10.20;99.90;;;;;;5075881;28;20163;-77
2022/12/24 01:46:02;;;;;;;19.40;4.70;;;10.30;99.90;;;;;;5075701;28;20523;-76
2022/12/24 01:48:33;;;;;;;26.33;3.97;;;10.30;99.90;;;;;;5075611;28;20170;-77
2022/12/24 01:51:07;;;;;;;21.87;3.70;;;10.20;99.90;;;;;;5075885;28;20159;-76
2022/12/24 01:53:35;;;;;;;25.33;4.57;;;10.20;99.90;;;;;;5075514;28;20650;-77
2022/12/24 01:56:01;;;;;;;19.97;4.30;;;10.30;99.90;;;;;;5075424;28;20640;-76
2022/12/24 01:58:27;;;;;;;28.13;4.30;;;10.30;99.90;;;;;;5057399;28;20198;-76
2022/12/24 02:00:52;;;;;;;23.47;4.37;;;10.30;99.90;;;;;;5057790;28;20656;-77
2022/12/24 02:03:19;;;;;;;19.93;3.77;;;10.20;99.90;;;;;;5075232;28;20239;-77
2022/12/24 02:05:53;;;;;;;20.13;4.07;;;10.20;99.90;;;;;;5075342;28;20175;-77
2022/12/24 02:08:19;;;;;;;23.07;4.03;;;10.20;99.90;;;;;;5057237;28;20265;-76
2022/12/24 02:10:46;;;;;;;24.10;4.20;;;10.20;99.90;;;;;;5075498;28;20250;-77
2022/12/24 02:13:15;;;;;;;21.37;4.77;;;10.10;99.90;;;;;;5075100;28;20592;-76
2022/12/24 02:16:12;;;;;;;19.43;3.93;;;10.10;99.90;;;;;;5075401;28;20175;-77
2022/12/24 02:18:51;;;;;;;19.83;3.30;;;10.10;99.90;;;;;;5075120;28;20193;-76
2022/12/24 02:21:47;;;;;;;23.00;4.40;;;10.00;99.90;;;;;;5075296;28;20190;-76
2022/12/24 02:24:40;;;;;;;19.47;4.10;;;10.00;99.90;;;;;;5056954;28;20275;-77
2022/12/24 02:27:31;;;;;;;17.53;4.37;;;10.00;99.90;;;;;;5057098;28;20181;-76
2022/12/24 02:30:05;;;;;;;22.67;4.00;;;10.00;99.90;;;;;;5056991;28;20203;-77
2022/12/24 02:32:38;;;;;;;17.90;3.53;;;10.00;99.90;;;;;;5074825;28;20159;-76
2022/12/24 02:35:14;;;;;;;19.43;3.67;;;9.90;99.90;;;;;;5056773;28;20167;-76
2022/12/24 02:37:44;;;;;;;22.50;3.47;;;9.90;99.90;;;;;;5056914;28;20163;-76
2022/12/24 02:40:15;;;;;;;26.03;4.00;;;9.80;99.90;;;;;;5074653;28;20617;-76
2022/12/24 02:42:43;;;;;;;20.90;3.50;;;9.70;99.90;;;;;;5056162;28;20212;-76
2022/12/24 02:45:14;;;;;;;20.70;4.20;;;9.70;99.90;;;;;;5056777;28;20199;-76
2022/12/24 02:47:41;;;;;;;26.77;4.10;;;9.60;99.90;;;;;;5074824;28;20617;-76
2022/12/24 02:50:08;;;;;;;26.23;3.70;;;9.60;99.90;;;;;;5074339;28;20748;-76
2022/12/24 02:52:38;;;;;;;20.30;3.53;;;9.60;99.90;;;;;;5074501;28;20255;-76
2022/12/24 02:55:45;;;;;;;19.50;4.10;;;9.50;99.90;;;;;;5074536;28;20284;-76
2022/12/24 02:58:27;;;;;;;23.13;3.73;;;9.50;99.90;;;;;;5022764;28;20206;-77
2022/12/24 03:01:16;;;;;;;19.27;4.03;;;9.50;99.90;;;;;;5056298;28;20178;-76
2022/12/24 03:04:04;;;;;;;26.90;3.47;;;9.40;99.90;;;;;;5074268;28;20190;-76
2022/12/24 03:06:48;;;;;;;22.07;3.57;;;9.40;99.90;;;;;;5056181;28;20225;-76
2022/12/24 03:09:24;;;;;;;23.80;3.77;;;9.40;99.90;;;;;;5056234;28;20190;-77
2022/12/24 03:12:06;;;;;;;18.63;3.47;;;9.40;99.90;;;;;;5055960;28;20199;-77
2022/12/24 03:14:33;;;;;;;22.40;4.97;;;9.40;99.90;;;;;;5056066;28;20167;-77
2022/12/24 03:17:01;;;;;;;18.10;3.30;;;9.40;99.90;;;;;;5055966;28;20192;-76
2022/12/24 03:19:27;;;;;;;20.93;3.73;;;9.40;99.90;;;;;;5055785;28;20226;-76
2022/12/24 03:21:57;;;;;;;15.80;3.37;;;9.40;99.90;;;;;;5055895;28;20609;-76
2022/12/24 03:24:22;;;;;;;22.13;3.97;;;9.40;99.90;;;;;;5073737;28;20556;-76
2022/12/24 03:26:49;;;;;;;16.70;3.70;;;9.40;99.90;;;;;;5073690;28;20171;-76
2022/12/24 03:29:16;;;;;;;24.20;3.60;;;9.40;99.90;;;;;;5055655;28;20634;-76
2022/12/24 03:31:44;;;;;;;19.43;2.93;;;9.30;99.90;;;;;;5073772;28;20163;-76
2022/12/24 03:34:11;;;;;;;25.57;4.20;;;9.40;99.90;;;;;;5073669;28;20227;-76
2022/12/24 03:36:36;;;;;;;27.07;4.07;;;9.40;99.90;;;;;;5073594;28;20716;-76
2022/12/24 03:39:03;;;;;;;21.70;3.80;;;9.40;99.90;;;;;;5073331;28;20194;-76
2022/12/24 03:41:29;;;;;;;32.03;5.07;;;9.40;99.90;;;;;;5073513;28;20667;-76
2022/12/24 03:43:55;;;;;;;25.43;3.17;;;9.40;99.90;;;;;;5073560;28;20198;-77
2022/12/24 03:46:20;;;;;;;23.60;3.73;;;9.50;99.90;;;;;;5073435;28;20175;-76
2022/12/24 03:48:46;;;;;;;25.57;4.83;;;9.50;99.90;;;;;;5073324;28;20190;-76
2022/12/24 03:51:23;;;;;;;18.77;3.77;;;9.60;99.90;;;;;;5055528;28;20181;-77
2022/12/24 03:53:50;;;;;;;21.03;3.53;;;9.60;99.90;;;;;;5073234;28;20532;-76
2022/12/24 03:56:16;;;;;;;13.70;2.83;;;9.60;99.90;;;;;;5072753;28;20187;-76
2022/12/24 03:58:42;;;;;;;18.67;4.67;;;9.60;99.90;;;;;;5055097;28;20280;-77
2022/12/24 04:01:07;;;;;;;18.97;3.97;;;9.70;99.90;;;;;;5073461;28;20179;-77
2022/12/24 04:03:33;;;;;;;24.20;3.47;;;9.70;99.90;;;;;;5072890;28;20248;-77
2022/12/24 04:06:04;;;;;;;15.07;3.03;;;9.80;99.90;;;;;;5073398;28;20679;-77
2022/12/24 04:08:30;;;;;;;18.03;2.90;;;9.90;99.90;;;;;;5055108;28;20198;-76
2022/12/24 04:10:55;;;;;;;16.83;2.90;;;9.90;99.90;;;;;;5073147;28;20166;-76
2022/12/24 04:13:21;;;;;;;16.67;3.33;;;9.90;99.90;;;;;;5073184;28;20544;-76
2022/12/24 04:15:59;;;;;;;17.10;2.70;;;10.00;99.90;;;;;;5055195;28;20170;-77
2022/12/24 04:18:25;;;;;;;11.20;2.73;;;10.00;99.90;;;;;;5073659;28;20159;-76
2022/12/24 04:20:51;;;;;;;16.47;3.70;;;10.00;99.90;;;;;;5073104;28;20257;-76
2022/12/24 04:23:16;;;;;;;11.50;2.50;;;10.10;99.90;;;;;;5054933;28;20206;-76
2022/12/24 04:25:42;;;;;;;10.63;2.37;;;10.10;99.90;;;;;;5073121;28;20244;-76
2022/12/24 04:28:07;;;;;;;12.63;2.37;;;10.20;99.90;;;;;;5073023;28;20175;-76
2022/12/24 04:30:33;;;;;;;9.33;2.57;;;10.10;99.90;;;;;;5073002;28;20686;-76
2022/12/24 04:32:58;;;;;;;15.40;2.83;;;10.20;99.90;;;;;;5055013;28;20266;-76
2022/12/24 04:35:24;;;;;;;15.03;2.70;;;10.20;99.90;;;;;;5072842;28;20173;-77
2022/12/24 04:37:49;;;;;;;11.57;2.33;;;10.30;99.90;;;;;;5054874;28;20262;-77
2022/12/24 04:40:15;;;;;;;9.43;1.90;;;10.30;99.90;;;;;;5072796;28;20278;-76
2022/12/24 04:42:40;;;;;;;20.00;3.53;;;10.30;99.90;;;;;;5054853;28;20714;-76
2022/12/24 04:45:07;;;;;;;12.80;2.80;;;10.20;99.90;;;;;;5054826;28;20202;-76
2022/12/24 04:47:32;;;;;;;9.80;2.57;;;10.30;99.90;;;;;;5054760;28;20176;-77
2022/12/24 04:50:00;;;;;;;9.70;2.60;;;10.20;99.90;;;;;;5054612;28;20202;-76
2022/12/24 04:52:25;;;;;;;9.37;2.27;;;10.20;99.90;;;;;;5073012;28;20171;-76
2022/12/24 04:54:51;;;;;;;12.83;2.73;;;10.30;99.90;;;;;;5054672;28;20178;-76
2022/12/24 04:57:16;;;;;;;12.83;2.63;;;10.30;99.90;;;;;;5072565;28;20230;-77
2022/12/24 04:59:42;;;;;;;13.67;2.83;;;10.30;99.90;;;;;;5054523;28;20198;-76
2022/12/24 05:02:08;;;;;;;12.50;2.10;;;10.30;99.90;;;;;;5072910;28;20686;-76
2022/12/24 05:04:33;;;;;;;12.83;2.60;;;10.30;99.90;;;;;;5072700;28;20289;-76
2022/12/24 05:06:59;;;;;;;15.67;2.70;;;10.30;99.90;;;;;;5074867;28;20175;-76
2022/12/24 05:09:24;;;;;;;11.10;2.57;;;10.30;99.90;;;;;;5076305;28;20197;-76
2022/12/24 05:11:50;;;;;;;11.60;2.53;;;10.30;99.90;;;;;;5076361;28;20221;-76
2022/12/24 05:14:15;;;;;;;18.30;3.20;;;10.20;99.90;;;;;;5058259;28;20183;-76
2022/12/24 05:16:42;;;;;;;9.90;2.20;;;10.20;99.90;;;;;;5058370;28;20205;-76
2022/12/24 05:19:08;;;;;;;16.67;2.70;;;10.20;99.90;;;;;;5058115;28;20753;-76
2022/12/24 05:21:34;;;;;;;17.27;2.27;;;10.10;99.90;;;;;;5058115;28;20178;-76
2022/12/24 05:26:53;;;;;;;17.63;2.97;;;10.10;99.90;;;;;;5076409;28;20631;-76
2022/12/24 05:29:19;;;;;;;12.00;2.50;;;10.10;99.90;;;;;;5075902;28;20724;-76
2022/12/24 05:31:45;;;;;;;13.57;2.90;;;10.10;99.90;;;;;;5076385;28;20171;-76
2022/12/24 05:34:12;;;;;;;14.87;2.80;;;10.10;99.90;;;;;;5075854;28;20277;-76
2022/12/24 05:36:38;;;;;;;14.47;3.53;;;10.10;99.90;;;;;;5075804;28;20648;-76
2022/12/24 05:39:04;;;;;;;9.80;2.73;;;10.10;99.90;;;;;;5075831;28;20289;-76
2022/12/24 05:41:31;;;;;;;11.10;3.07;;;10.10;99.90;;;;;;5075793;28;20250;-76
2022/12/24 05:43:57;;;;;;;14.60;2.83;;;10.10;99.90;;;;;;5075737;28;20207;-76
2022/12/24 05:46:23;;;;;;;19.13;3.23;;;10.10;99.90;;;;;;5076012;28;20178;-76
2022/12/24 05:48:49;;;;;;;18.73;3.60;;;10.10;99.90;;;;;;5075441;28;20307;-76
2022/12/24 05:51:21;;;;;;;13.50;3.20;;;10.10;99.90;;;;;;5057645;28;20175;-76
2022/12/24 05:53:47;;;;;;;13.17;3.03;;;10.20;99.90;;;;;;5075917;28;20163;-77
2022/12/24 05:56:16;;;;;;;13.57;2.67;;;10.20;99.90;;;;;;5057543;28;20261;-76
2022/12/24 05:58:43;;;;;;;15.37;2.77;;;10.20;99.90;;;;;;5057322;28;20248;-77
2022/12/24 06:01:09;;;;;;;12.67;2.57;;;10.20;99.90;;;;;;5075505;28;20171;-76
2022/12/24 06:03:35;;;;;;;16.37;3.30;;;10.20;99.90;;;;;;5075232;28;20563;-76
2022/12/24 06:06:04;;;;;;;10.07;2.60;;;10.30;99.90;;;;;;5075249;28;20171;-76
2022/12/24 06:08:31;;;;;;;12.00;3.00;;;10.20;99.90;;;;;;5075139;28;20364;-76
2022/12/24 06:10:58;;;;;;;18.43;2.73;;;10.10;99.90;;;;;;5075133;28;20189;-77
2022/12/24 06:13:24;;;;;;;17.00;3.40;;;10.10;99.90;;;;;;5075291;28;20669;-76
2022/12/24 06:15:53;;;;;;;11.30;2.97;;;10.10;99.90;;;;;;5075310;28;20254;-76
2022/12/24 06:18:18;;;;;;;17.30;3.60;;;10.10;99.90;;;;;;5074165;28;20183;-76
2022/12/24 06:20:44;;;;;;;12.87;2.47;;;10.10;99.90;;;;;;5056985;28;20308;-77
2022/12/24 06:23:09;;;;;;;15.93;3.13;;;10.10;99.90;;;;;;5075153;28;20171;-76
2022/12/24 06:25:35;;;;;;;17.20;3.17;;;10.10;99.90;;;;;;5056897;28;20202;-76
2022/12/24 06:28:00;;;;;;;14.97;3.00;;;10.10;99.90;;;;;;5057038;28;20634;-76
2022/12/24 06:30:26;;;;;;;15.63;3.07;;;10.10;99.90;;;;;;5056856;28;20209;-76
2022/12/24 06:32:51;;;;;;;17.07;3.23;;;10.10;99.90;;;;;;5074707;28;20213;-76
2022/12/24 06:35:17;;;;;;;21.33;2.63;;;10.10;99.90;;;;;;5074839;28;20561;-76
2022/12/24 06:37:42;;;;;;;18.47;2.87;;;10.20;99.90;;;;;;5074856;28;20558;-76
2022/12/24 06:40:08;;;;;;;15.27;3.30;;;10.20;99.90;;;;;;5074647;28;20198;-76
2022/12/24 06:42:34;;;;;;;16.43;3.60;;;10.20;99.90;;;;;;5074736;28;20228;-76
2022/12/24 06:44:59;;;;;;;21.70;3.67;;;10.30;99.90;;;;;;5074588;28;20210;-76
2022/12/24 06:47:25;;;;;;;16.70;3.03;;;10.30;99.90;;;;;;5056988;28;20243;-76
2022/12/24 06:49:50;;;;;;;15.13;2.90;;;10.30;99.90;;;;;;5056516;28;20195;-76
2022/12/24 06:52:16;;;;;;;18.57;2.83;;;10.30;99.90;;;;;;5074809;28;20175;-76
2022/12/24 06:54:41;;;;;;;13.10;2.90;;;10.20;99.90;;;;;;5056587;28;20182;-76
2022/12/24 06:57:07;;;;;;;19.70;3.53;;;10.20;99.90;;;;;;5074219;28;20599;-75
2022/12/24 06:59:33;;;;;;;16.70;3.40;;;10.30;99.90;;;;;;5056511;28;20336;-76
2022/12/24 07:01:58;;;;;;;17.80;3.17;;;10.10;99.90;;;;;;5056514;28;20186;-76
2022/12/24 07:04:23;;;;;;;25.43;3.67;;;10.10;99.90;;;;;;5056256;28;20683;-76
2022/12/24 07:06:49;;;;;;;13.87;3.23;;;10.10;99.90;;;;;;5056237;28;20166;-76
2022/12/24 07:09:14;;;;;;;14.73;3.20;;;10.10;99.90;;;;;;5074102;28;20195;-76
2022/12/24 07:11:40;;;;;;;19.43;4.33;;;10.00;99.90;;;;;;5074060;28;20167;-76
2022/12/24 07:14:06;;;;;;;15.40;3.47;;;10.10;99.90;;;;;;5073981;28;20171;-76
2022/12/24 07:16:31;;;;;;;19.73;3.87;;;10.10;99.90;;;;;;5074595;28;20195;-77
2022/12/24 07:18:57;;;;;;;17.57;3.63;;;10.10;99.90;;;;;;5075664;28;20663;-77
2022/12/24 07:21:22;;;;;;;17.13;3.30;;;10.10;99.90;;;;;;5074522;28;20179;-77
2022/12/24 07:23:48;;;;;;;21.97;4.07;;;10.10;99.90;;;;;;5056108;28;20248;-75
2022/12/24 07:26:13;;;;;;;17.20;3.50;;;10.10;99.90;;;;;;5074362;28;20171;-76
2022/12/24 07:28:39;;;;;;;20.27;3.20;;;10.10;99.90;;;;;;5055866;28;20190;-75
2022/12/24 07:31:05;;;;;;;21.80;3.50;;;10.10;99.90;;;;;;5056061;28;20262;-76
2022/12/24 07:33:30;;;;;;;21.57;3.70;;;10.10;99.90;;;;;;5073929;28;20214;-76
2022/12/24 07:36:04;;;;;;;20.80;3.47;;;10.10;99.90;;;;;;5073868;28;20163;-76
2022/12/24 07:38:31;;;;;;;13.77;3.07;;;10.00;99.90;;;;;;5073668;28;20248;-76
2022/12/24 07:40:57;;;;;;;23.90;4.10;;;10.00;99.90;;;;;;5073895;28;20175;-76
2022/12/24 07:43:23;;;;;;;19.90;3.83;;;10.00;99.90;;;;;;5055877;28;20171;-76
2022/12/24 07:45:49;;;;;;;16.23;4.03;;;9.90;99.90;;;;;;5055822;28;20669;-75
2022/12/24 07:48:15;;;;;;;23.73;4.27;;;9.90;99.90;;;;;;5055639;28;20217;-76
2022/12/24 07:50:41;;;;;;;22.83;3.57;;;9.90;99.90;;;;;;5073342;28;20278;-76
2022/12/24 07:53:06;;;;;;;15.40;2.90;;;9.80;99.90;;;;;;5073406;28;20175;-75
2022/12/24 07:55:32;;;;;;;19.83;3.37;;;9.80;99.90;;;;;;5073647;28;20232;-76
2022/12/24 07:57:57;;;;;;;20.20;3.23;;;9.80;99.90;;;;;;5073079;28;20634;-76
2022/12/24 08:00:23;;;;;;;17.53;3.40;;;9.80;99.90;;;;;;5073006;28;20194;-75
2022/12/24 08:02:48;;;;;;;21.07;3.57;;;9.80;99.90;;;;;;5072957;28;20178;-75
2022/12/24 08:05:14;;;;;;;21.80;4.67;;;9.80;99.90;;;;;;5073088;28;20282;-75
2022/12/24 08:07:39;;;;;;;17.13;3.47;;;9.80;99.90;;;;;;5073257;28;20666;-75
2022/12/24 08:10:06;;;;;;;22.80;4.90;;;9.80;99.90;;;;;;5067544;28;20306;-77
2022/12/24 08:12:31;;;;;;;18.90;4.47;;;9.80;99.90;;;;;;5055019;28;20203;-77
2022/12/24 08:14:57;;;;;;;22.20;3.87;;;9.80;99.90;;;;;;5072568;28;20198;-78
2022/12/24 08:17:22;;;;;;;18.10;2.90;;;9.80;99.90;;;;;;5072543;28;20210;-77
2022/12/24 08:19:54;;;;;;;19.07;3.87;;;9.80;99.90;;;;;;5054378;28;20191;-79
2022/12/24 08:22:20;;;;;;;20.87;2.77;;;9.80;99.90;;;;;;5054869;28;20225;-76
2022/12/24 08:24:45;;;;;;;24.37;3.80;;;9.80;99.90;;;;;;5072704;28;20567;-77
2022/12/24 08:27:11;;;;;;;30.57;3.83;;;9.80;99.90;;;;;;5054721;28;20189;-76
2022/12/24 08:29:36;;;;;;;22.87;3.80;;;9.80;99.90;;;;;;5054665;28;20198;-77
2022/12/24 08:32:02;;;;;;;21.20;4.27;;;9.80;99.90;;;;;;5054859;28;20719;-76
2022/12/24 08:34:28;;;;;;;18.60;3.63;;;9.80;99.90;;;;;;5054625;28;20575;-76
2022/12/24 08:36:53;;;;;;;19.13;3.80;;;9.80;99.90;;;;;;5072775;28;20170;-77
2022/12/24 08:39:19;;;;;;;16.83;3.40;;;9.80;99.90;;;;;;5072598;28;20194;-76
2022/12/24 08:41:44;;;;;;;21.13;4.53;;;9.80;99.90;;;;;;5074726;28;20819;-76
2022/12/24 08:44:10;;;;;;;21.73;4.27;;;9.80;99.90;;;;;;5058545;28;20676;-76
2022/12/24 08:46:36;;;;;;;23.57;3.83;;;9.80;99.90;;;;;;5076832;28;20173;-77
2022/12/24 08:49:01;;;;;;;24.90;3.63;;;9.80;99.90;;;;;;5076412;28;20271;-77
2022/12/24 08:51:27;;;;;;;18.80;3.80;;;9.80;99.90;;;;;;5076648;28;20246;-77
2022/12/24 08:53:52;;;;;;;14.13;3.27;;;9.80;99.90;;;;;;5076834;28;20179;-77
2022/12/24 08:56:18;;;;;;;19.37;3.23;;;9.80;99.90;;;;;;5076521;28;20179;-77
2022/12/24 08:58:43;;;;;;;25.73;4.50;;;9.80;99.90;;;;;;5059126;28;20225;-78
2022/12/24 09:01:14;;;;;;;20.00;3.83;;;9.80;99.90;;;;;;5077565;28;20171;-77
2022/12/24 09:03:40;;;;;;;28.93;4.17;;;9.80;99.90;;;;;;5058409;28;20181;-77
2022/12/24 09:06:06;;;;;;;28.00;3.97;;;9.80;99.90;;;;;;5058319;28;20644;-77
2022/12/24 09:08:32;;;;;;;29.37;4.17;;;9.90;99.90;;;;;;5076173;28;20195;-76
2022/12/24 09:11:13;;;;;;;24.50;4.10;;;9.90;99.90;;;;;;5076551;28;20245;-77
2022/12/24 09:13:39;;;;;;;26.33;3.83;;;9.90;99.90;;;;;;5058324;28;20224;-77
2022/12/24 09:16:05;;;;;;;20.00;3.70;;;10.00;99.90;;;;;;5076193;28;20167;-76
2022/12/24 09:18:31;;;;;;;25.43;3.90;;;10.00;99.90;;;;;;5075920;28;20191;-78
2022/12/24 09:21:05;;;;;;;25.10;4.13;;;10.00;99.90;;;;;;5076104;28;20174;-77
2022/12/24 09:23:33;;;;;;;16.70;3.77;;;10.10;99.90;;;;;;5076467;28;20662;-78
2022/12/24 09:25:59;;;;;;;27.40;3.77;;;10.10;99.90;;;;;;5057711;28;20167;-76
2022/12/24 09:28:24;;;;;;;23.50;4.17;;;10.10;99.90;;;;;;5075760;28;20171;-76
2022/12/24 09:30:58;;;;;;;14.83;3.70;;;10.10;99.90;;;;;;5057955;28;20175;-76
2022/12/24 09:33:24;;;;;;;20.57;3.80;;;10.20;99.90;;;;;;5075972;28;20166;-77
2022/12/24 09:35:51;;;;;;;23.33;4.53;;;10.20;99.90;;;;;;5075751;28;20171;-76
2022/12/24 09:38:18;;;;;;;19.30;4.37;;;10.20;99.90;;;;;;5075545;28;20672;-76
2022/12/24 09:40:43;;;;;;;20.80;4.03;;;10.30;99.90;;;;;;5078161;28;20163;-78
2022/12/24 09:43:19;;;;;;;22.13;3.77;;;10.30;99.90;;;;;;5079958;28;20666;-77
2022/12/24 09:46:03;;;;;;;19.37;3.43;;;10.40;99.90;;;;;;5076119;28;20196;-78
2022/12/24 09:48:32;;;;;;;25.47;3.97;;;10.40;99.90;;;;;;5058002;28;20174;-78
2022/12/24 09:51:08;;;;;;;21.33;4.17;;;10.40;99.90;;;;;;5075664;28;20162;-77
2022/12/24 09:53:47;;;;;;;22.87;4.07;;;10.40;99.90;;;;;;5056736;28;20163;-77
2022/12/24 09:56:46;;;;;;;21.83;3.77;;;10.40;99.90;;;;;;5057349;28;20250;-77
2022/12/24 09:59:24;;;;;;;20.33;4.07;;;10.50;99.90;;;;;;5021092;28;20211;-77
2022/12/24 10:01:53;;;;;;;25.20;4.33;;;10.50;99.90;;;;;;5076659;28;20198;-78
2022/12/24 10:04:22;;;;;;;24.00;4.57;;;10.60;99.90;;;;;;5076772;28;20203;-78
2022/12/24 10:07:06;;;;;;;29.03;4.00;;;10.60;99.90;;;;;;5058199;28;20217;-79
2022/12/24 10:10:13;;;;;;;27.43;4.67;;;10.60;99.90;;;;;;5076667;28;20191;-79
2022/12/24 10:13:03;;;;;;;20.20;3.90;;;10.50;99.90;;;;;;5060817;28;20170;-79
2022/12/24 10:15:48;;;;;;;22.93;4.53;;;10.50;99.90;;;;;;5096710;28;20225;-77
2022/12/24 10:18:20;;;;;;;22.50;4.30;;;10.60;99.90;;;;;;5095342;28;20249;-77
2022/12/24 10:21:04;;;;;;;26.17;4.30;;;10.60;99.90;;;;;;5077079;28;20193;-77
2022/12/24 10:23:42;;;;;;;21.30;4.37;;;10.60;99.90;;;;;;5095208;28;20174;-77
2022/12/24 10:26:19;;;;;;;24.47;4.20;;;10.60;99.90;;;;;;5076633;28;20212;-77
2022/12/24 10:28:47;;;;;;;31.50;5.10;;;10.60;99.90;;;;;;5094860;28;20186;-76
2022/12/24 10:31:14;;;;;;;24.13;4.37;;;10.60;99.90;;;;;;5095079;28;20702;-76
2022/12/24 10:33:43;;;;;;;21.47;3.77;;;10.70;99.90;;;;;;5094741;28;20202;-76
2022/12/24 10:36:17;;;;;;;24.50;5.50;;;10.70;99.90;;;;;;5093955;28;20249;-77
2022/12/24 10:38:43;;;;;;;19.27;4.07;;;10.70;99.90;;;;;;5093330;28;20281;-78
2022/12/24 10:44:33;;;;;;;25.43;4.70;;;10.70;99.90;;;;;;5054282;28;20341;-77
2022/12/24 10:46:58;;;;;;;24.50;4.10;;;10.80;99.90;;;;;;5055264;28;20174;-77
2022/12/24 10:49:29;;;;;;;26.57;4.90;;;10.80;99.90;;;;;;5054428;28;20187;-76
2022/12/24 10:52:01;;;;;;;18.20;4.00;;;10.90;99.90;;;;;;5054251;28;20167;-76
2022/12/24 10:54:28;;;;;;;21.27;4.13;;;10.90;99.90;;;;;;5054426;28;20167;-77
2022/12/24 10:57:01;;;;;;;17.77;3.63;;;11.00;99.90;;;;;;5038408;28;20677;-77
2022/12/24 10:59:41;;;;;;;26.67;4.60;;;11.00;99.90;;;;;;5036297;28;20246;-77
2022/12/24 11:02:29;;;;;;;22.63;4.23;;;11.00;99.90;;;;;;5054241;28;20644;-77
2022/12/24 11:04:54;;;;;;;26.33;4.83;;;11.10;99.90;;;;;;5053963;28;20202;-77
2022/12/24 11:07:22;;;;;;;22.07;4.33;;;11.10;99.90;;;;;;5054741;28;20533;-78
2022/12/24 11:09:59;;;;;;;22.43;4.80;;;11.20;99.90;;;;;;5055411;28;20184;-78
2022/12/24 11:12:44;;;;;;;23.57;4.40;;;11.20;99.90;;;;;;5037200;28;20168;-78
2022/12/24 11:15:21;;;;;;;20.00;4.23;;;11.20;99.90;;;;;;5055324;28;20267;-78
2022/12/24 11:17:53;;;;;;;30.00;4.57;;;11.10;99.90;;;;;;5055708;28;20540;-78
2022/12/24 11:20:25;;;;;;;22.10;4.03;;;11.20;99.90;;;;;;5063097;28;20227;-78
2022/12/24 11:22:50;;;;;;;25.93;5.13;;;11.20;99.90;;;;;;5061154;28;20206;-79
2022/12/24 11:25:22;;;;;;;29.13;4.93;;;11.20;99.90;;;;;;5057931;28;20203;-78
2022/12/24 11:27:50;;;;;;;22.37;3.83;;;11.30;99.90;;;;;;5037364;28;20682;-78
2022/12/24 11:30:15;;;;;;;18.20;4.20;;;11.30;99.90;;;;;;5055049;28;20192;-77
2022/12/24 11:33:06;;;;;;;21.63;4.03;;;11.30;99.90;;;;;;5053866;28;20637;-77
2022/12/24 11:35:38;;;;;;;22.10;4.50;;;11.30;99.90;;;;;;5052813;28;20656;-79
2022/12/24 11:38:06;;;;;;;18.37;3.93;;;11.30;99.90;;;;;;5055744;28;20164;-80
2022/12/24 11:40:44;;;;;;;24.20;4.30;;;11.30;99.90;;;;;;5038188;28;20195;-80
2022/12/24 11:43:20;;;;;;;23.87;5.07;;;11.20;99.90;;;;;;5038768;28;20640;-80
2022/12/24 11:45:54;;;;;;;28.43;5.23;;;11.30;99.90;;;;;;5055744;28;20183;-82
2022/12/24 11:48:24;;;;;;;23.07;4.57;;;11.30;99.90;;;;;;5055857;28;20221;-79
2022/12/24 11:50:56;;;;;;;24.87;4.63;;;11.40;99.90;;;;;;5055588;28;20190;-79
2022/12/24 11:53:30;;;;;;;19.73;4.53;;;11.40;99.90;;;;;;5038081;28;20160;-79
2022/12/24 11:55:59;;;;;;;28.30;4.93;;;11.50;99.90;;;;;;5055950;28;20197;-79
2022/12/24 11:58:36;;;;;;;27.20;4.73;;;11.50;99.90;;;;;;5037298;28;20688;-80
2022/12/24 12:01:17;;;;;;;15.40;3.70;;;11.50;99.90;;;;;;5037413;28;20167;-79
2022/12/24 12:03:50;;;;;;;22.67;3.97;;;11.40;99.90;;;;;;5054904;28;20236;-79
2022/12/24 12:06:37;;;;;;;22.23;4.23;;;11.40;99.90;;;;;;5055535;28;20160;-79
2022/12/24 12:09:10;;;;;;;31.30;4.70;;;11.50;99.90;;;;;;5037560;28;20198;-79
2022/12/24 12:11:39;;;;;;;21.90;3.93;;;11.60;99.90;;;;;;5055380;28;20175;-79
2022/12/24 12:14:08;;;;;;;22.70;4.07;;;11.60;99.90;;;;;;5055443;28;20225;-79
2022/12/24 12:17:04;;;;;;;15.93;3.13;;;11.60;99.90;;;;;;5054334;28;20172;-78
2022/12/24 12:19:46;;;;;;;19.83;3.43;;;11.70;99.90;;;;;;5055029;28;20187;-81
2022/12/24 12:22:28;;;;;;;20.43;4.67;;;11.70;99.90;;;;;;5054385;28;20164;-78
2022/12/24 12:24:55;;;;;;;19.40;3.50;;;11.80;99.90;;;;;;5054217;28;20195;-78
2022/12/24 12:27:38;;;;;;;15.27;3.73;;;11.80;99.90;;;;;;5036140;28;20172;-78
2022/12/24 12:30:16;;;;;;;21.70;3.97;;;12.00;99.90;;;;;;5035653;28;20195;-79
2022/12/24 12:32:50;;;;;;;20.33;3.63;;;12.10;99.90;;;;;;5036757;28;20546;-79
2022/12/24 12:35:27;;;;;;;20.57;3.60;;;12.20;99.90;;;;;;5055362;28;20179;-80
2022/12/24 12:38:12;;;;;;;26.13;4.43;;;12.20;99.90;;;;;;5037060;28;20178;-79
2022/12/24 12:41:10;;;;;;;21.20;4.03;;;12.20;99.90;;;;;;5054993;28;20229;-79
2022/12/24 12:43:55;;;;;;;20.30;3.50;;;12.10;99.90;;;;;;5054247;28;20156;-79
2022/12/24 12:46:34;;;;;;;15.40;3.90;;;12.10;99.90;;;;;;5036505;28;20170;-79
2022/12/24 12:49:09;;;;;;;19.10;4.23;;;12.40;99.90;;;;;;5036507;28;20195;-79
2022/12/24 12:51:46;;;;;;;17.30;3.47;;;12.20;99.90;;;;;;5036756;28;20633;-79
2022/12/24 12:54:27;;;;;;;24.70;4.23;;;12.20;99.90;;;;;;5052950;28;20160;-78
2022/12/24 12:56:57;;;;;;;20.03;4.33;;;12.30;99.90;;;;;;5052788;28;20530;-77
2022/12/24 12:59:29;;;;;;;12.63;3.27;;;12.30;99.90;;;;;;5052332;28;20199;-77
2022/12/24 13:02:15;;;;;;;16.60;4.07;;;12.30;99.90;;;;;;5052302;28;20235;-77